KRTN

Raton Municipal / Crews Field Airport

Raton, New Mexico, USA
METAR KRTN 181353Z AUTO 36008KT 10SM CLR 07/M09 A2998 RMK AO2 SLP124 T00671089
Observed Flight Rules
Dec-18 @ 13:53 UTC (9 minutes ago) Visual Flight Rules
Wind Visibility Clouds
360° at 8 knots 10 miles
  • Clear skies
Temperatures Readings
Current 7°C / 45°F
Dewpoint -9°C / 16°F
Humidity 31%
Altimeter 29.98" Hg
Pressure 1012.4 hPa
Elevation 1936
METAR KRTN 181353Z AUTO 36008KT 10SM CLR 07/M09 A2998 RMK AO2 SLP124 T00671089
Observed Flight Rules
Dec-18 @ 13:53 UTC
(9 minutes ago)
VFR
Wind Visibility
360° at 8 knots 10 miles
Clouds
  • Clear skies
Temperature Dewpoint
7°C / 45°F -9°C / 16°F
Humidity Altimeter Pressure
31% 29.98" Hg 1012.4 hPa